Tiempo atmosférico en la estación meteorológica de Hervas, Cáceres (738 m.)



Fecha
DESCASC
Temp. máxima en grados centígrados (hora)
DESCASC
Temp. mínima en grados centígrados (hora)
DESCASC
Temp. media en grados centígrados
DESCASC
Racha de viento máxima en m/sg (hora)
DESCASC
Velocidad máxima media en intervalos de 10 minutos(hora)
DESCASC
Precipitaciones diarias en mm
DESCASC
Precipitaciones de 00:00 a 06:00 en mm
DESCASC
Precipitaciones de 06:00 a 12:00 en mm
DESCASC
Precipitaciones de 12:00 a 18:00 en mm
DESCASC
Precipitaciones de 18:00 a 24:00 en mm
DESCASC
13-10-2019 21.2 (17:40) 12.3 (09:40) 16.8 12.5 (21:20) 6.94 (21:00) 0 0 0 0 0
12-10-2019 25.8 (16:20) 17.2 (08:40) 21.5 15 (17:20) 7.5 (15:10) 0 0 0 0 0
11-10-2019 25.9 (15:20) 15.9 (08:30) 20.9 12.5 (21:50) 6.11 (21:10) 0 0 0 0 0
10-10-2019 26.4 (17:50) 12.5 (00:00) 19.4 4.17 (09:50) 3.61 (19:50) 0 0 0 0 0
09-10-2019 26.4 (16:10) 14.5 (00:00) 20.4 7.5 (17:40) 3.89 (17:00) 0 0 0 0 0
08-10-2019 28.8 (18:00) 16.3 (00:00) 22.5 5.28 (14:50) 3.33 (03:00) 0 0 0 0 0
07-10-2019 29.8 (16:50) 14.6 (00:00) 22.2 7.5 (17:10) 3.61 (17:50) 0 0 0 0 0
06-10-2019 26.8 (17:10) 11.6 (00:00) 19.2 7.22 (16:50) 3.61 (01:20) 0 0 0 0 0
05-10-2019 25.8 (17:50) 14.2 (00:00) 20 5.28 (14:00) 3.89 (21:30) 0 0 0 0 0
04-10-2019 25.6 (17:00) 13.1 (00:00) 19.4 6.11 (15:40) 3.33 (19:50) 0 0 0 0 0
03-10-2019 26.1 (16:20) 11.5 (00:00) 18.8 5.56 (18:20) 3.33 (20:40) 0 0 0 0 0
02-10-2019 22 (17:40) 8.3 (00:00) 15.2 9.44 (16:40) 4.72 (14:50) 0 0 0 0 0
01-10-2019 22.7 (16:40) 13.2 (00:00) 18 8.61 (15:40) 4.44 (15:40) 0 0 0 0 0
30-09-2019 27.9 (17:00) 14 (00:00) 20.9 5.83 (15:50) 3.89 (20:10) 0 0 0 0 0
29-09-2019 27.6 (18:40) 14.8 (00:00) 21.2 5.56 (17:00) 4.17 (02:00) 0 0 0 0 0
28-09-2019 26.9 (17:50) 12.9 (00:00) 19.9 5.28 (16:40) 4.17 (20:40) 0 0 0 0 0
27-09-2019 26.6 (16:10) 13.6 (00:00) 20.1 5.56 (19:30) 3.33 (02:50) 0 0 0 0 0
26-09-2019 25.7 (17:40) 13 (00:00) 19.4 5.28 (15:50) 3.61 (20:30) 0 0 0 0 0
25-09-2019 22.6 (16:30) 10 (00:00) 16.3 7.22 (16:50) 3.89 (16:40) 0 0 0 0 0
24-09-2019 22.1 (17:10) 11.5 (00:00) 16.8 6.11 (17:10) 4.17 (00:10) 0 0 0 0 0
23-09-2019 22 (18:00) 10.5 (00:00) 16.3 5.28 (16:50) 4.17 (23:50) 0 0 0 0 0
22-09-2019 19.2 (17:00) 12.7 (00:00) 16 14.44 (00:10) 8.61 (00:10) 5.6 5.4 0.2 0 0
21-09-2019 18.7 (21:50) 15.3 (00:00) 17 17.78 (23:30) 10.28 (23:59) 9.6 0 1.8 5.6 2.2
20-09-2019 25.1 (16:00) 16.1 (00:00) 20.6 13.89 (11:40) 5.56 (14:30) 1 0 0 0.8 0.2
19-09-2019 27.8 (17:20) 16.4 (00:00) 22.1 6.11 (17:20) 3.33 (18:40) 0 0 0 0 0
18-09-2019 27.1 (17:30) 13.7 (00:00) 20.4 5.28 (16:30) 3.89 (22:20) 0 0 0 0 0
17-09-2019 27.6 (14:40) 15.7 (00:00) 21.7 9.17 (19:30) 4.72 (21:20) 6.8 0 0 0 6.8
16-09-2019 23.5 (17:10) 15.7 (00:00) 19.6 6.11 (02:50) 3.33 (21:30) 0.2 0 0.2 0 0
15-09-2019 23.5 (17:20) 14.9 (00:00) 19.2 5.56 (19:10) 4.17 (19:10) 5.8 5.4 0.4 0 0

Gráficas

Temp. máximas Temp. mínimas Temp. medias Precipitaciones Rachas de viento máximas Velocidades máximas media en intervalos de 10 minutos

Datos horarios

Fecha y hora oficial Temperatura (ºC) Velocidad del viento (km/h) Dirección del viento Racha (km/h) Dirección de racha Precipitación (mm) Presión (hPa) Tendencia (hPa) Humedad (%)
2019-10-14 23:00:00 7.2 7 Sudeste 12 Sur 0 -- -- 95
2019-10-14 22:00:00 7.5 5 Sudeste 13 Sur 0 -- -- 94
2019-10-14 21:00:00 8.2 6 Sudeste 15 Sur 0 -- -- 93
2019-10-14 20:00:00 9 6 Sur 9 Sudeste 0 -- -- 93
2019-10-14 19:00:00 9.7 4 Este 32 Oeste 2 -- -- 90
2019-10-14 18:00:00 11.3 2 Norte 10 Oeste 2.6 -- -- 89
2019-10-14 17:00:00 10.2 2 Nordeste 18 Oeste 1.8 -- -- 94
2019-10-14 16:00:00 10.5 5 Oeste 28 Sudoeste 6.6 -- -- 93
2019-10-14 15:00:00 11.3 8 Oeste 28 Oeste 4.2 -- -- 94
2019-10-14 14:00:00 13.9 10 Noroeste 20 Oeste 0 -- -- 71
2019-10-14 13:00:00 13.8 9 Oeste 21 Noroeste 0 -- -- 73
2019-10-14 12:00:00 14.1 7 Sur 28 Noroeste 0 -- -- 62
2019-10-14 11:00:00 12.4 9 Noroeste 26 Noroeste 0 -- -- 85
2019-10-14 10:00:00 12.2 5 Oeste 32 Sudoeste 0 -- -- 79
2019-10-14 09:00:00 12.5 18 Sudoeste 64 Oeste 2 -- -- 73
2019-10-14 08:00:00 14.6 13 Sudoeste 49 Sur 1.6 -- -- 72
2019-10-14 07:00:00 16.1 24 Sur 55 Sur 0 -- -- 69
2019-10-14 06:00:00 16.8 25 Sur 46 Sur 0 -- -- 67
2019-10-14 05:00:00 15.9 11 Oeste 42 Sudoeste 0 -- -- 72
2019-10-14 04:00:00 19 15 Sur 41 Sur 0 -- -- 58
2019-10-14 03:00:00 19.8 12 Sur 53 Sur 0 -- -- 51
2019-10-14 02:00:00 20.4 15 Sur 48 Sur 0 -- -- 48
2019-10-14 01:00:00 20.8 18 Sur 53 Sudoeste 0 -- -- 49
2019-10-14 00:00:00 20.7 18 Sur 37 Este 0 -- -- 48
2019-10-13 23:00:00 20.6 14 Sur 35 Sur 0 -- -- 49
2019-10-13 22:00:00 20.7 12 Sur 45 Sudeste 0 -- -- 48
2019-10-13 21:00:00 20.5 25 Sudeste 39 Sudeste 0 -- -- 48
2019-10-13 20:00:00 19.7 18 Sudeste 39 Sudoeste 0 -- -- 50
2019-10-13 19:00:00 20.4 13 Sur 39 Sur 0 -- -- 48
2019-10-13 18:00:00 20.8 12 Sudeste 31 Este 0 -- -- 50
2019-10-13 17:00:00 20.9 7 Sudeste 31 Sur 0 -- -- 51
2019-10-13 16:00:00 20.4 7 Noroeste 32 Sur 0 -- -- 51
2019-10-13 15:00:00 19.8 10 Sur 33 Sudeste 0 -- -- 52
2019-10-13 14:00:00 19.1 11 Sudoeste 31 Sudoeste 0 -- -- 55
2019-10-13 13:00:00 18.7 11 Sudoeste 27 Oeste 0 -- -- 53
2019-10-13 12:00:00 17.9 8 Oeste 23 Oeste 0 -- -- 59
2019-10-13 11:00:00 16.2 4 Este 15 Oeste 0 -- -- 68
2019-10-13 10:00:00 12.5 3 Nordeste 9 Sudoeste 0 -- -- 93
2019-10-13 09:00:00 12.7 8 Oeste 17 Sudoeste 0 -- -- 91
2019-10-13 08:00:00 12.8 5 Norte 17 Oeste 0 -- -- 91
2019-10-13 07:00:00 12.8 5 Noroeste 13 Noroeste 0 -- -- 91
2019-10-13 06:00:00 13.4 7 Oeste 29 Oeste 0 -- -- 87
2019-10-13 05:00:00 14.2 9 Sudoeste 22 Oeste 0 -- -- 85
2019-10-13 04:00:00 13.8 4 Noroeste 15 Nordeste 0 -- -- 86
2019-10-13 03:00:00 14.7 6 Norte 17 Nordeste 0 -- -- 84
2019-10-13 02:00:00 16.5 10 Oeste 38 Sudeste 0 -- -- 80
2019-10-13 01:00:00 19.9 15 Sur 33 Sudoeste 0 -- -- 63
2019-10-13 00:00:00 19.7 4 Oeste 48 Sudeste 0 -- -- 67
2019-10-12 23:00:00 21.7 22 Sur 41 Sudeste 0 -- -- 52
2019-10-12 22:00:00 22.7 12 Sur 46 Sur 0 -- -- 46
2019-10-12 21:00:00 23.7 16 Sur 39 Sudeste 0 -- -- 39
2019-10-12 20:00:00 24.2 17 Sur 35 Sur 0 -- -- 39
2019-10-12 19:00:00 24.7 14 Sur 40 Sur 0 -- -- 36
2019-10-12 18:00:00 25.1 15 Sur 54 Sur 0 -- -- 37
2019-10-12 17:00:00 25.3 15 Sur 46 Sur 0 -- -- 37
2019-10-12 16:00:00 25.7 18 Sur 50 Sudeste 0 -- -- 38
2019-10-12 15:00:00 25.2 26 Sudeste 53 Sudeste 0 -- -- 38
2019-10-12 14:00:00 24.7 17 Sur 45 Sudeste 0 -- -- 40
2019-10-12 13:00:00 24.9 12 Sur 36 Sudeste 0 -- -- 39
2019-10-12 12:00:00 23.3 13 Sur 46 Sudeste 0 -- -- 43
2019-10-12 11:00:00 22.3 19 Sudeste 44 Sudeste 0 -- -- 44
2019-10-12 10:00:00 18.3 6 Este 18 Sudeste 0 -- -- 59
2019-10-12 09:00:00 17.3 5 Sudoeste 14 Noroeste 0 -- -- 71
2019-10-12 08:00:00 18.2 8 Oeste 17 Oeste 0 -- -- 66
2019-10-12 07:00:00 18.6 2 Oeste 36 Sudeste 0 -- -- 65
2019-10-12 06:00:00 22.1 18 Sur 36 Sur 0 -- -- 44
2019-10-12 05:00:00 17.8 5 Este 9 Sudeste 0 -- -- 67
2019-10-12 04:00:00 18.5 5 Sudeste 8 Sudeste 0 -- -- 64
2019-10-12 03:00:00 18.8 4 Sudeste 8 Sudeste 0 -- -- 62
2019-10-12 02:00:00 20.2 4 Noroeste 18 Oeste 0 -- -- 56
2019-10-12 01:00:00 20.7 3 Sur 33 Sur 0 -- -- 54
2019-10-12 00:00:00 23.3 17 Sur 33 Sur 0 -- -- 43
2019-10-11 23:00:00 23.4 20 Sur 40 Sur 0 -- -- 46
2019-10-11 22:00:00 23.7 17 Sur 45 Sudeste 0 -- -- 46
2019-10-11 21:00:00 23.9 19 Sur 36 Sudeste 0 -- -- 43
2019-10-11 20:00:00 23.8 17 Sur 37 Sur 0 -- -- 45
2019-10-11 19:00:00 24.1 14 Sudeste 37 Sudeste 0 -- -- 48
2019-10-11 18:00:00 25.2 9 Sudeste 30 Sudeste 0 -- -- 46
2019-10-11 17:00:00 25.2 18 Sur 44 Sudeste 0 -- -- 47
2019-10-11 16:00:00 25.5 17 Sur 34 Sur 0 -- -- 46
2019-10-11 15:00:00 25.6 13 Sur 32 Sur 0 -- -- 45
2019-10-11 14:00:00 24.5 8 Oeste 20 Noroeste 0 -- -- 48
2019-10-11 13:00:00 22.4 4 Oeste 12 Noroeste 0 -- -- 48
2019-10-11 12:00:00 21.1 3 Sudoeste 6 Sudoeste 0 -- -- 49
2019-10-11 11:00:00 20.1 2 Noroeste 6 Este 0 -- -- 51
2019-10-11 10:00:00 17 3 Sudeste 9 Sur 0 -- -- 62
2019-10-11 09:00:00 16.3 4 Sudeste 9 Sur 0 -- -- 63
2019-10-11 08:00:00 16.4 6 Sudeste 9 Sur 0 -- -- 61
2019-10-11 07:00:00 16.7 5 Sur 10 Sudeste 0 -- -- 61
2019-10-11 06:00:00 17.9 6 Sur 10 Sudeste 0 -- -- 56
2019-10-11 05:00:00 17.8 5 Sudeste 12 Sur 0 -- -- 56
2019-10-11 04:00:00 17.3 6 Sudeste 10 Sudeste 0 -- -- 57
2019-10-11 03:00:00 17.5 7 Sur 9 Sudeste 0 -- -- 55
2019-10-11 02:00:00 18.3 7 Sur 10 Sur 0 -- -- 52
2019-10-11 01:00:00 18 6 Sudeste 10 Sudeste 0 -- -- 53
2019-10-11 00:00:00 17.1 8 Sudeste 12 Sudeste 0 -- -- 55
2019-10-10 23:00:00 17 8 Sudeste 10 Sudeste 0 -- -- 55
2019-10-10 22:00:00 17.6 6 Sudeste 13 Sur 0 -- -- 54
2019-10-10 21:00:00 18.5 8 Sudeste 15 Sur 0 -- -- 50
2019-10-10 20:00:00 20.2 11 Sur 15 Sur 0 -- -- 47
2019-10-10 19:00:00 23.8 7 Sur 11 Noroeste 0 -- -- 40
2019-10-10 18:00:00 26.4 4 Noroeste 13 Oeste 0 -- -- 31
2019-10-10 17:00:00 25.9 6 Sudoeste 14 Noroeste 0 -- -- 33
2019-10-10 16:00:00 25.5 5 Oeste 15 Oeste 0 -- -- 33
2019-10-10 15:00:00 24.6 5 Noroeste 13 Noroeste 0 -- -- 35
2019-10-10 14:00:00 23.3 6 Noroeste 12 Norte 0 -- -- 37
2019-10-10 13:00:00 21.7 4 Noroeste 9 Noroeste 0 -- -- 39
2019-10-10 12:00:00 19.8 5 Noroeste 10 Noroeste 0 -- -- 44
2019-10-10 11:00:00 18.7 3 Oeste 10 Sur 0 -- -- 45
2019-10-10 10:00:00 15 7 Sur 15 Sur 0 -- -- 56
2019-10-10 09:00:00 13.1 6 Sudeste 11 Sur 0 -- -- 58
2019-10-10 08:00:00 13.2 6 Sudeste 9 Este 0 -- -- 57
2019-10-10 07:00:00 13.4 5 Sudeste 12 Sur 0 -- -- 57
2019-10-10 06:00:00 14.6 7 Sur 12 Sudeste 0 -- -- 52
2019-10-10 05:00:00 14 7 Sudeste 12 Sur 0 -- -- 55
2019-10-10 04:00:00 14.5 7 Sudeste 12 Sur 0 -- -- 52
2019-10-10 03:00:00 15 8 Sudeste 12 Sur 0 -- -- 53
2019-10-10 02:00:00 14.4 6 Sudeste 9 Sur 0 -- -- 57
2019-10-10 01:00:00 13.8 5 Sudeste 13 Sur 0 -- -- 62
2019-10-10 00:00:00 14.8 8 Sur 15 Sur 0 -- -- 57
2019-10-09 23:00:00 15.7 7 Sudeste 10 Sur 0 -- -- 54
2019-10-09 22:00:00 16.4 6 Sur 10 Sur 0 -- -- 54
2019-10-09 21:00:00 17.8 4 Sudeste 12 Sur 0 -- -- 50
2019-10-09 20:00:00 21.7 4 Sudeste 20 Norte 0 -- -- 39
2019-10-09 19:00:00 24.5 10 Norte 24 Norte 0 -- -- 34
2019-10-09 18:00:00 25.4 10 Norte 27 Noroeste 0 -- -- 34
2019-10-09 17:00:00 26 14 Norte 24 Norte 0 -- -- 34
2019-10-09 16:00:00 26.3 12 Norte 19 Noroeste 0 -- -- 32
2019-10-09 15:00:00 25.6 9 Noroeste 21 Norte 0 -- -- 34
2019-10-09 14:00:00 25 8 Noroeste 17 Noroeste 0 -- -- 31
2019-10-09 13:00:00 22.8 6 Noroeste 16 Noroeste 0 -- -- 49
2019-10-09 12:00:00 20.6 6 Sudoeste 18 Norte 0 -- -- 61
2019-10-09 11:00:00 19 4 Sudoeste 11 Sur 0 -- -- 67
2019-10-09 10:00:00 16.3 3 Norte 14 Sudeste 0 -- -- 78
2019-10-09 09:00:00 15.2 6 Sur 13 Este 0 -- -- 83
2019-10-09 08:00:00 14.5 6 Sudeste 13 Sur 0 -- -- 84
2019-10-09 07:00:00 16.4 5 Sudeste 15 Oeste 0 -- -- 78
2019-10-09 06:00:00 16.8 4 Sudeste 12 Sur 0 -- -- 69
2019-10-09 05:00:00 16.6 5 Sur 14 Sur 0 -- -- 69
2019-10-09 04:00:00 16.9 7 Sudeste 10 Sur 0 -- -- 68
2019-10-09 03:00:00 18.5 7 Sudeste 12 Sur 0 -- -- 60
2019-10-09 02:00:00 18.3 6 Sudeste 15 Sur 0 -- -- 58
2019-10-09 01:00:00 18.6 9 Sudeste 13 Sur 0 -- -- 58
2019-10-09 00:00:00 19.5 5 Sudeste 13 Sudeste 0 -- -- 56
2019-10-08 23:00:00 19.3 7 Sudeste 15 Sur 0 -- -- 53
2019-10-08 22:00:00 20.7 8 Sudeste 17 Sur 0 -- -- 47
2019-10-08 21:00:00 21.4 10 Sur 16 Sur 0 -- -- 45
2019-10-08 20:00:00 22.1 11 Sur 14 Sur 0 -- -- 46
2019-10-08 19:00:00 28.1 0 Calma 12 Noroeste 0 -- -- 33
2019-10-08 18:00:00 28.8 6 Oeste 15 Noroeste 0 -- -- 30
2019-10-08 17:00:00 28.7 8 Oeste 19 Noroeste 0 -- -- 31
2019-10-08 16:00:00 28.4 9 Noroeste 16 Noroeste 0 -- -- 32
2019-10-08 15:00:00 27.6 6 Noroeste 19 Noroeste 0 -- -- 35
2019-10-08 14:00:00 26.6 7 Noroeste 14 Noroeste 0 -- -- 35
2019-10-08 13:00:00 25.9 4 Noroeste 10 Noroeste 0 -- -- 34
2019-10-08 12:00:00 25.3 3 Noroeste 6 Oeste 0 -- -- 36
2019-10-08 11:00:00 23.5 0 Calma 8 Sudeste 0 -- -- 45
2019-10-08 10:00:00 18.7 7 Sudeste 12 Sur 0 -- -- 56
2019-10-08 09:00:00 16.7 9 Sur 13 Sur 0 -- -- 57
2019-10-08 08:00:00 16.6 7 Sudeste 13 Sur 0 -- -- 58
2019-10-08 07:00:00 17.2 8 Sudeste 13 Sur 0 -- -- 56
2019-10-08 06:00:00 17 8 Sudeste 11 Sudeste 0 -- -- 56
2019-10-08 05:00:00 18.2 9 Sur 14 Sur 0 -- -- 51
2019-10-08 04:00:00 18.2 9 Sur 14 Sur 0 -- -- 51
2019-10-08 03:00:00 19.3 12 Sur 17 Sur 0 -- -- 47
2019-10-08 02:00:00 18.4 8 Sudeste 16 Sur 0 -- -- 49
2019-10-08 01:00:00 19.4 9 Sudeste 14 Sur 0 -- -- 45
2019-10-08 00:00:00 20.4 8 Sudeste 12 Sur 0 -- -- 43
2019-10-07 23:00:00 20 6 Sudeste 14 Sur 0 -- -- 46
2019-10-07 22:00:00 19.7 8 Sur 15 Sur 0 -- -- 48
2019-10-07 21:00:00 21 10 Sur 15 Sur 0 -- -- 45
2019-10-07 20:00:00 22.8 5 Sudeste 14 Norte 0 -- -- 44
2019-10-07 19:00:00 28 10 Noroeste 21 Noroeste 0 -- -- 31
2019-10-07 18:00:00 29 12 Norte 27 Norte 0 -- -- 29
2019-10-07 17:00:00 29.7 10 Norte 20 Norte 0 -- -- 30
2019-10-07 16:00:00 28.9 8 Oeste 17 Oeste 0 -- -- 28
2019-10-07 15:00:00 28.2 4 Oeste 14 Oeste 0 -- -- 27
2019-10-07 14:00:00 26.7 6 Noroeste 16 Noroeste 0 -- -- 30
2019-10-07 13:00:00 25.2 4 Noroeste 15 Oeste 0 -- -- 32
2019-10-07 12:00:00 23.9 6 Oeste 11 Sudoeste 0 -- -- 35
2019-10-07 11:00:00 22.4 5 Oeste 13 Oeste 0 -- -- 37
2019-10-07 10:00:00 19.9 6 Sur 14 Sur 0 -- -- 51
2019-10-07 09:00:00 16.6 8 Sudeste 11 Sudeste 0 -- -- 52
2019-10-07 08:00:00 15.9 4 Sur 10 Sudeste 0 -- -- 48
2019-10-07 07:00:00 15.9 8 Sudeste 13 Sudeste 0 -- -- 44
2019-10-07 06:00:00 15.5 8 Sudeste 15 Sur 0 -- -- 43
2019-10-07 05:00:00 14.8 6 Sudeste 14 Sur 0 -- -- 41
2019-10-07 04:00:00 15.6 9 Sur 15 Sur 0 -- -- 40
2019-10-07 03:00:00 16.5 10 Sur 14 Sur 0 -- -- 39
2019-10-07 02:00:00 17.3 6 Sur 15 Sudeste 0 -- -- 42
2019-10-07 01:00:00 16.1 8 Sudeste 17 Sudeste 0 -- -- 54
2019-10-07 00:00:00 17.4 7 Sudeste 14 Este 0 -- -- 51
2019-10-06 23:00:00 17.3 8 Sudeste 13 Sudeste 0 -- -- 49
2019-10-06 22:00:00 18.1 6 Sudeste 13 Este 0 -- -- 47
2019-10-06 21:00:00 18.5 6 Sudeste 15 Sur 0 -- -- 44
2019-10-06 20:00:00 19.8 7 Sur 13 Noroeste 0 -- -- 43
2019-10-06 19:00:00 25.9 7 Noroeste 16 Noroeste 0 -- -- 28
2019-10-06 18:00:00 26.4 8 Noroeste 17 Noroeste 0 -- -- 26
2019-10-06 17:00:00 26.7 6 Noroeste 26 Norte 0 -- -- 32
2019-10-06 16:00:00 26 6 Noroeste 15 Norte 0 -- -- 30
2019-10-06 15:00:00 25 3 Noroeste 19 Noroeste 0 -- -- 34
2019-10-06 14:00:00 23.9 8 Noroeste 20 Norte 0 -- -- 37
2019-10-06 13:00:00 22.6 6 Oeste 17 Noroeste 0 -- -- 36
2019-10-06 12:00:00 21.2 4 Noroeste 8 Noroeste 0 -- -- 38
2019-10-06 11:00:00 19.6 4 Oeste 9 Sur 0 -- -- 33
2019-10-06 10:00:00 15.4 6 Sudeste 13 Sur 0 -- -- 47
2019-10-06 09:00:00 12.8 6 Sudeste 11 Sur 0 -- -- 44
2019-10-06 08:00:00 12.1 8 Sur 14 Sur 0 -- -- 46
2019-10-06 07:00:00 12.2 9 Sudeste 14 Sudeste 0 -- -- 47
2019-10-06 06:00:00 12.1 6 Sudeste 15 Sur 0 -- -- 52
2019-10-06 05:00:00 12.9 6 Sudeste 14 Sur 0 -- -- 52
2019-10-06 04:00:00 13.1 10 Sudeste 14 Sudeste 0 -- -- 57
2019-10-06 03:00:00 14.7 10 Sur 17 Sur 0 -- -- 53
2019-10-06 02:00:00 14.7 8 Sudeste 18 Sur 0 -- -- 59
2019-10-06 01:00:00 16.2 7 Sudeste 13 Sudeste 0 -- -- 57
2019-10-06 00:00:00 16.3 6 Sudeste 17 Sur 0 -- -- 70
2019-10-05 23:00:00 17.2 9 Sur 14 Sur 0 -- -- 69
2019-10-05 22:00:00 18.1 8 Sur 17 Sur 0 -- -- 66
2019-10-05 21:00:00 18.6 9 Sudeste 17 Sur 0 -- -- 64
2019-10-05 20:00:00 20.1 12 Sur 15 Sur 0 -- -- 58
2019-10-05 19:00:00 24.9 5 Oeste 10 Oeste 0 -- -- 43
2019-10-05 18:00:00 25.7 6 Oeste 15 Oeste 0 -- -- 39
2019-10-05 17:00:00 25.1 3 Sur 13 Sudoeste 0 -- -- 41
2019-10-05 16:00:00 24.2 6 Oeste 18 Noroeste 0 -- -- 48
2019-10-05 15:00:00 23.4 9 Oeste 19 Oeste 0 -- -- 50
2019-10-05 14:00:00 22.7 9 Noroeste 19 Noroeste 0 -- -- 51
2019-10-05 13:00:00 21.6 3 Noroeste 9 Noroeste 0 -- -- 55
2019-10-05 12:00:00 19.9 4 Noroeste 12 Noroeste 0 -- -- 61
2019-10-05 11:00:00 19.4 3 Oeste 6 Sudoeste 0 -- -- 63
2019-10-05 10:00:00 16.9 4 Sur 8 Sudeste 0 -- -- 74
2019-10-05 09:00:00 14.5 4 Sudeste 15 Sur 0 -- -- 78
2019-10-05 08:00:00 15 7 Sudeste 16 Sur 0 -- -- 75
2019-10-05 07:00:00 15.2 8 Sur 15 Sur 0 -- -- 75
2019-10-05 06:00:00 14.7 7 Sur 15 Sur 0 -- -- 78
2019-10-05 05:00:00 14.6 8 Sudeste 12 Sur 0 -- -- 79
2019-10-05 04:00:00 14.6 6 Sur 10 Sudeste 0 -- -- 77
2019-10-05 03:00:00 14.3 6 Sudeste 13 Sur 0 -- -- 78
2019-10-05 02:00:00 15.2 8 Sur 14 Sur 0 -- -- 75
2019-10-05 01:00:00 16.7 10 Sur 16 Sur 0 -- -- 69
2019-10-05 00:00:00 17 9 Sur 15 Sur 0 -- -- 68
2019-10-04 23:00:00 18 11 Sur 15 Sur 0 -- -- 64
2019-10-04 22:00:00 17.7 7 Sudeste 11 Sur 0 -- -- 57
2019-10-04 21:00:00 17.7 7 Sudeste 12 Sur 0 -- -- 58
2019-10-04 20:00:00 20 11 Sur 15 Sur 0 -- -- 52
2019-10-04 19:00:00 24.8 5 Noroeste 15 Noroeste 0 -- -- 38
2019-10-04 18:00:00 25.3 6 Noroeste 12 Noroeste 0 -- -- 40
2019-10-04 17:00:00 25.6 3 Oeste 17 Noroeste 0 -- -- 40
2019-10-04 16:00:00 24.6 8 Oeste 22 Oeste 0 -- -- 44
2019-10-04 15:00:00 24.2 5 Noroeste 14 Noroeste 0 -- -- 46
2019-10-04 14:00:00 23.1 5 Noroeste 13 Oeste 0 -- -- 50
2019-10-04 13:00:00 21.3 8 Noroeste 14 Noroeste 0 -- -- 55
2019-10-04 12:00:00 20 6 Oeste 11 Oeste 0 -- -- 55
2019-10-04 11:00:00 19.3 5 Oeste 12 Oeste 0 -- -- 56
2019-10-04 10:00:00 16.4 6 Sur 14 Sur 0 -- -- 62
2019-10-04 09:00:00 13.5 6 Sudeste 13 Sur 0 -- -- 76
2019-10-04 08:00:00 13.8 8 Sur 11 Sur 0 -- -- 74
2019-10-04 07:00:00 15 5 Sudoeste 11 Sudeste 0 -- -- 60
2019-10-04 06:00:00 14.4 7 Sudeste 15 Sur 0 -- -- 64
2019-10-04 05:00:00 14 8 Sudeste 14 Sur 0 -- -- 68
2019-10-04 04:00:00 14.1 9 Sudeste 13 Sur 0 -- -- 66
2019-10-04 03:00:00 14.4 8 Sur 15 Sur 0 -- -- 64
2019-10-04 02:00:00 14.7 7 Sudeste 12 Sur 0 -- -- 64
2019-10-04 01:00:00 15.7 8 Sur 13 Sur 0 -- -- 54
2019-10-04 00:00:00 16.4 5 Sur 15 Sur 0 -- -- 47
2019-10-03 23:00:00 17.2 7 Sudeste 13 Sudeste 0 -- -- 42
2019-10-03 22:00:00 18 8 Sur 16 Sur 0 -- -- 44
2019-10-03 21:00:00 18.6 9 Sur 16 Sudeste 0 -- -- 44
2019-10-03 20:00:00 20.1 9 Sur 14 Noroeste 0 -- -- 45
2019-10-03 19:00:00 25.3 5 Noroeste 20 Noroeste 0 -- -- 32
2019-10-03 18:00:00 26 10 Noroeste 18 Noroeste 0 -- -- 31
2019-10-03 17:00:00 25.8 8 Noroeste 19 Norte 0 -- -- 31
2019-10-03 16:00:00 25.7 9 Noroeste 19 Noroeste 0 -- -- 29
2019-10-03 15:00:00 24.5 7 Oeste 16 Noroeste 0 -- -- 30
2019-10-03 14:00:00 23 6 Oeste 16 Noroeste 0 -- -- 35
2019-10-03 13:00:00 22 6 Noroeste 15 Oeste 0 -- -- 36
2019-10-03 12:00:00 20.4 5 Oeste 10 Oeste 0 -- -- 39
2019-10-03 11:00:00 19 4 Noroeste 10 Sur 0 -- -- 45
2019-10-03 10:00:00 14.9 6 Sur 16 Sur 0 -- -- 55
2019-10-03 09:00:00 12.1 9 Sur 14 Sur 0 -- -- 61
2019-10-03 08:00:00 11.8 7 Sudeste 17 Sur 0 -- -- 62
2019-10-03 07:00:00 11.7 8 Sudeste 12 Sur 0 -- -- 62
2019-10-03 06:00:00 12 7 Sudeste 12 Sur 0 -- -- 62
2019-10-03 05:00:00 12.8 7 Sudeste 11 Sur 0 -- -- 59
2019-10-03 04:00:00 13.2 8 Sudeste 12 Sur 0 -- -- 55
2019-10-03 03:00:00 12.8 8 Sudeste 12 Sur 0 -- -- 53
2019-10-03 02:00:00 12.8 7 Sudeste 13 Sur 0 -- -- 52
2019-10-03 01:00:00 12.5 8 Sudeste 15 Sudeste 0 -- -- 55
2019-10-03 00:00:00 12.9 9 Sudeste 18 Sur 0 -- -- 56
2019-10-02 23:00:00 13 9 Sudeste 14 Sur 0 -- -- 58
2019-10-02 22:00:00 13.3 6 Sudeste 9 Sudeste 0 -- -- 61
2019-10-02 21:00:00 15.6 6 Sur 15 Este 0 -- -- 53
2019-10-02 20:00:00 19.2 6 Norte 25 Norte 0 -- -- 43
2019-10-02 19:00:00 21.2 7 Norte 31 Norte 0 -- -- 39
2019-10-02 18:00:00 21.7 14 Norte 30 Norte 0 -- -- 38
2019-10-02 17:00:00 21.9 13 Norte 34 Norte 0 -- -- 38
2019-10-02 16:00:00 21.9 14 Norte 27 Noroeste 0 -- -- 40
2019-10-02 15:00:00 21.3 12 Noroeste 29 Noroeste 0 -- -- 45
2019-10-02 14:00:00 21.3 8 Oeste 20 Oeste 0 -- -- 44
2019-10-02 13:00:00 19.3 7 Oeste 17 Oeste 0 -- -- 51
2019-10-02 12:00:00 17 7 Oeste 24 Oeste 0 -- -- 54
2019-10-02 11:00:00 15.1 3 Oeste 8 Sudoeste 0 -- -- 53
2019-10-02 10:00:00 11.7 3 Sudeste 8 Sudeste 0 -- -- 55
2019-10-02 09:00:00 8.5 6 Sudeste 12 Sudeste 0 -- -- 57
2019-10-02 08:00:00 9.2 5 Sur 12 Sudeste 0 -- -- 51
2019-10-02 07:00:00 9.1 6 Sudeste 9 Sudeste 0 -- -- 56
2019-10-02 06:00:00 9.5 5 Sudeste 9 Sur 0 -- -- 62
2019-10-02 05:00:00 10.6 6 Sudeste 11 Sudeste 0 -- -- 74
2019-10-02 04:00:00 11.6 6 Sudeste 14 Sur 0 -- -- 77
2019-10-02 03:00:00 12.8 4 Sur 12 Sur 0 -- -- 78
2019-10-02 02:00:00 14.1 3 Sur 15 Sudeste 0 -- -- 74
2019-10-02 01:00:00 14.9 5 Este 14 Este 0 -- -- 70
2019-10-02 00:00:00 16 4 Sudeste 23 Nordeste 0 -- -- 66
2019-10-01 23:00:00 16 6 Este 18 Nordeste 0 -- -- 62
2019-10-01 22:00:00 15.4 6 Sur 12 Sur 0 -- -- 65
2019-10-01 21:00:00 16.3 5 Sudeste 11 Este 0 -- -- 64
2019-10-01 20:00:00 19.7 5 Sur 18 Norte 0 -- -- 55
2019-10-01 19:00:00 22 8 Norte 25 Noroeste 0 -- -- 46
2019-10-01 18:00:00 22.2 10 Norte 22 Noroeste 0 -- -- 45
2019-10-01 17:00:00 22.5 10 Norte 27 Nordeste 0 -- -- 52
2019-10-01 16:00:00 22 10 Nordeste 31 Noroeste 0 -- -- 55
2019-10-01 15:00:00 21.4 6 Norte 23 Norte 0 -- -- 56
2019-10-01 14:00:00 20.6 9 Nordeste 26 Nordeste 0 -- -- 56
2019-10-01 13:00:00 19.4 8 Norte 28 Norte 0 -- -- 57
2019-10-01 12:00:00 19.3 8 Noroeste 17 Noroeste 0 -- -- 63
2019-10-01 11:00:00 17.6 6 Noroeste 13 Noroeste 0 -- -- 67
2019-10-01 10:00:00 16.5 2 Sudeste 9 Sudoeste 0 -- -- 67
2019-10-01 09:00:00 13.3 7 Sur 10 Sur 0 -- -- 67
2019-10-01 08:00:00 14.2 6 Sur 14 Sur 0 -- -- 56
2019-10-01 07:00:00 14.8 8 Sudeste 12 Sur 0 -- -- 64
2019-10-01 06:00:00 14.5 5 Sudeste 10 Sudeste 0 -- -- 59
2019-10-01 05:00:00 18.3 3 Sur 12 Sur 0 -- -- 44
2019-10-01 04:00:00 16.6 5 Sudeste 11 Sur 0 -- -- 50
2019-10-01 03:00:00 16.8 9 Sur 13 Sudeste 0 -- -- 52
2019-10-01 02:00:00 17 7 Sur 12 Sur 0 -- -- 44
2019-10-01 01:00:00 16.8 9 Sur 14 Sur 0 -- -- 42
2019-10-01 00:00:00 18.2 8 Sur 17 Sur 0 -- -- 38
2019-09-30 23:00:00 19.6 10 Sur 17 Sur 0 -- -- 40
2019-09-30 22:00:00 18.6 8 Sudeste 15 Sur 0 -- -- 44
2019-09-30 21:00:00 19 8 Sudeste 19 Sur 0 -- -- 44
2019-09-30 20:00:00 21.9 13 Sur 17 Sur 0 -- -- 39
2019-09-30 19:00:00 26.8 3 Oeste 20 Noroeste 0 -- -- 27
2019-09-30 18:00:00 27.4 8 Noroeste 21 Noroeste 0 -- -- 24
2019-09-30 17:00:00 27.9 8 Oeste 21 Noroeste 0 -- -- 26
2019-09-30 16:00:00 27.3 9 Oeste 21 Oeste 0 -- -- 29
2019-09-30 15:00:00 26.3 7 Noroeste 15 Oeste 0 -- -- 35
2019-09-30 14:00:00 24.7 6 Noroeste 14 Norte 0 -- -- 40
2019-09-30 13:00:00 23.7 8 Noroeste 15 Noroeste 0 -- -- 43
2019-09-30 12:00:00 23.6 5 Noroeste 9 Noroeste 0 -- -- 38
2019-09-30 11:00:00 22.3 2 Oeste 8 Sur 0 -- -- 39
2019-09-30 10:00:00 18 6 Sudeste 12 Sur 0 -- -- 52
2019-09-30 09:00:00 15.6 9 Sudeste 12 Sur 0 -- -- 50
2019-09-30 08:00:00 14.4 9 Sudeste 15 Sur 0 -- -- 55
2019-09-30 07:00:00 14.3 7 Sudeste 13 Sur 0 -- -- 56
2019-09-30 06:00:00 14.6 8 Sudeste 12 Sudeste 0 -- -- 59
2019-09-30 05:00:00 14.6 8 Sudeste 14 Sur 0 -- -- 58
2019-09-30 04:00:00 15 8 Sudeste 15 Sur 0 -- -- 60
2019-09-30 03:00:00 15.3 10 Sur 15 Sur 0 -- -- 58
2019-09-30 02:00:00 16.2 10 Sur 15 Sur 0 -- -- 56
2019-09-30 01:00:00 16.7 6 Sudeste 15 Sur 0 -- -- 55
2019-09-30 00:00:00 18.1 5 Sudeste 15 Sur 0 -- -- 48
2019-09-29 23:00:00 18.3 8 Sudeste 15 Sur 0 -- -- 45
2019-09-29 22:00:00 18.9 9 Sur 15 Sur 0 -- -- 41
2019-09-29 21:00:00 19.3 12 Sur 17 Sur 0 -- -- 37
2019-09-29 20:00:00 21 13 Sur 17 Sur 0 -- -- 33
2019-09-29 19:00:00 25.6 7 Sur 9 Sur 0 -- -- 25
2019-09-29 18:00:00 27.3 5 Noroeste 17 Noroeste 0 -- -- 21
2019-09-29 17:00:00 27.2 8 Oeste 20 Oeste 0 -- -- 26
2019-09-29 16:00:00 26.9 7 Noroeste 16 Oeste 0 -- -- 27
2019-09-29 15:00:00 26 6 Noroeste 17 Noroeste 0 -- -- 29
2019-09-29 14:00:00 24.7 5 Oeste 16 Noroeste 0 -- -- 34
2019-09-29 13:00:00 23.6 5 Noroeste 17 Noroeste 0 -- -- 36
2019-09-29 12:00:00 23.7 7 Noroeste 14 Oeste 0 -- -- 37
2019-09-29 11:00:00 22.6 0 Calma 9 Sur 0 -- -- 45
2019-09-29 10:00:00 17.6 7 Sur 12 Sur 0 -- -- 55
2019-09-29 09:00:00 15.2 7 Sudeste 12 Sur 0 -- -- 56
2019-09-29 08:00:00 15 9 Sudeste 15 Sur 0 -- -- 56
2019-09-29 07:00:00 16 10 Sudeste 15 Sur 0 -- -- 51
2019-09-29 06:00:00 14.9 9 Sudeste 14 Sur 0 -- -- 58
2019-09-29 05:00:00 16.7 9 Sudeste 16 Sur 0 -- -- 49
2019-09-29 04:00:00 16.9 9 Sudeste 17 Sur 0 -- -- 47
2019-09-29 03:00:00 18.2 13 Sur 18 Sur 0 -- -- 42
2019-09-29 02:00:00 18.8 15 Sur 18 Sur 0 -- -- 42
2019-09-29 01:00:00 18.3 13 Sur 19 Sur 0 -- -- 42
2019-09-29 00:00:00 17.9 12 Sur 16 Sudeste 0 -- -- 43
2019-09-28 23:00:00 16.9 8 Sudeste 16 Sudeste 0 -- -- 50
2019-09-28 22:00:00 17.5 9 Sur 18 Sur 0 -- -- 50
2019-09-28 21:00:00 18.9 13 Sur 19 Sur 0 -- -- 47
2019-09-28 20:00:00 21.4 13 Sur 16 Sur 0 -- -- 42
2019-09-28 19:00:00 26.5 0 Calma 15 Norte 0 -- -- 31
2019-09-28 18:00:00 26.9 5 Oeste 14 Noroeste 0 -- -- 30
2019-09-28 17:00:00 26.4 7 Noroeste 19 Oeste 0 -- -- 32
2019-09-28 16:00:00 26 7 Noroeste 16 Noroeste 0 -- -- 35
2019-09-28 15:00:00 25 6 Oeste 14 Noroeste 0 -- -- 41
2019-09-28 14:00:00 23.8 7 Noroeste 17 Noroeste 0 -- -- 41
2019-09-28 13:00:00 22.9 6 Oeste 14 Oeste 0 -- -- 41
2019-09-28 12:00:00 22 4 Noroeste 9 Norte 0 -- -- 42
2019-09-28 11:00:00 20.9 0 Calma 10 Sur 0 -- -- 45
2019-09-28 10:00:00 16.8 6 Sudeste 15 Sur 0 -- -- 58
2019-09-28 09:00:00 13.5 9 Sudeste 16 Sur 0 -- -- 64
2019-09-28 08:00:00 13.4 11 Sur 18 Sur 0 -- -- 64
2019-09-28 07:00:00 13.7 9 Sudeste 15 Sur 0 -- -- 60
2019-09-28 06:00:00 14.1 8 Sudeste 12 Sur 0 -- -- 59
2019-09-28 05:00:00 14 8 Sudeste 12 Sur 0 -- -- 62
2019-09-28 04:00:00 13.7 8 Sudeste 11 Sudeste 0 -- -- 65
2019-09-28 03:00:00 13 7 Sudeste 10 Sur 0 -- -- 71
2019-09-28 02:00:00 13.3 8 Sur 14 Sur 0 -- -- 75
2019-09-28 01:00:00 15.4 9 Sur 13 Sur 0 -- -- 65
2019-09-28 00:00:00 15.7 5 Sudeste 12 Sudeste 0 -- -- 62
2019-09-27 23:00:00 16.3 6 Sudeste 12 Sur 0 -- -- 60
2019-09-27 22:00:00 17.2 5 Sudeste 14 Sur 0 -- -- 56
2019-09-27 21:00:00 18 6 Sudeste 13 Sudeste 0 -- -- 53
2019-09-27 20:00:00 21.7 8 Sur 20 Noroeste 0 -- -- 43
2019-09-27 19:00:00 25.8 7 Norte 13 Norte 0 -- -- 30
2019-09-27 18:00:00 26.4 6 Norte 14 Norte 0 -- -- 28
2019-09-27 17:00:00 26.3 9 Noroeste 19 Noroeste 0 -- -- 28
2019-09-27 16:00:00 26.3 8 Norte 17 Noroeste 0 -- -- 26
2019-09-27 15:00:00 26.1 6 Sudoeste 17 Noroeste 0 -- -- 29
2019-09-27 14:00:00 25.3 6 Norte 17 Norte 0 -- -- 29
2019-09-27 13:00:00 23.9 6 Sudoeste 12 Sudoeste 0 -- -- 27
2019-09-27 12:00:00 22.4 5 Oeste 13 Oeste 0 -- -- 39
2019-09-27 11:00:00 21 4 Sur 9 Sur 0 -- -- 44
2019-09-27 10:00:00 16.6 5 Sudeste 14 Sur 0 -- -- 64
2019-09-27 09:00:00 13.7 8 Sudeste 12 Sur 0 -- -- 66
2019-09-27 08:00:00 13.9 8 Sudeste 11 Sur 0 -- -- 66
2019-09-27 07:00:00 14 6 Sudeste 14 Sur 0 -- -- 65
2019-09-27 06:00:00 14 8 Sudeste 12 Sur 0 -- -- 64
2019-09-27 05:00:00 14.5 6 Sudeste 13 Sur 0 -- -- 61
2019-09-27 04:00:00 15.3 8 Sudeste 14 Sur 0 -- -- 61
2019-09-27 03:00:00 15.8 9 Sur 18 Sur 0 -- -- 59
2019-09-27 02:00:00 15.6 9 Sur 15 Sur 0 -- -- 60
2019-09-27 01:00:00 16.3 8 Sudeste 14 Sur 0 -- -- 64
2019-09-27 00:00:00 17.2 8 Sur 13 Sudeste 0 -- -- 64
2019-09-26 23:00:00 17.9 9 Sur 15 Sur 0 -- -- 62
2019-09-26 22:00:00 17.8 10 Sur 15 Sur 0 -- -- 62
2019-09-26 21:00:00 18.3 8 Sudeste 16 Sur 0 -- -- 59
2019-09-26 20:00:00 21.1 12 Sur 15 Sur 0 -- -- 51
2019-09-26 19:00:00 25.7 4 Oeste 11 Noroeste 0 -- -- 37
2019-09-26 18:00:00 25.5 6 Oeste 14 Noroeste 0 -- -- 39
2019-09-26 17:00:00 25.4 8 Noroeste 18 Sudoeste 0 -- -- 40
2019-09-26 16:00:00 24.9 6 Noroeste 19 Oeste 0 -- -- 44
2019-09-26 15:00:00 23.5 7 Oeste 18 Oeste 0 -- -- 48
2019-09-26 14:00:00 22.4 6 Noroeste 17 Noroeste 0 -- -- 50
2019-09-26 13:00:00 21.4 7 Noroeste 15 Noroeste 0 -- -- 54
2019-09-26 12:00:00 20.5 4 Noroeste 10 Noroeste 0 -- -- 52
2019-09-26 11:00:00 19.3 4 Oeste 6 Oeste 0 -- -- 57
2019-09-26 10:00:00 16.6 5 Sudeste 10 Sudeste 0 -- -- 70
2019-09-26 09:00:00 13.8 8 Sur 15 Sur 0 -- -- 74
2019-09-26 08:00:00 13.7 9 Sur 13 Sur 0 -- -- 73
2019-09-26 07:00:00 13.7 7 Sur 12 Sur 0 -- -- 74
2019-09-26 06:00:00 13.4 8 Sudeste 12 Sur 0 -- -- 76
2019-09-26 05:00:00 13 5 Sudeste 11 Sur 0 -- -- 78
2019-09-26 04:00:00 13.6 6 Sur 11 Sur 0 -- -- 77
2019-09-26 03:00:00 13.9 7 Sudeste 14 Sur 0 -- -- 76
2019-09-26 02:00:00 14.1 7 Sudeste 13 Sur 0 -- -- 77
2019-09-26 01:00:00 14.2 9 Sur 14 Sur 0 -- -- 77
2019-09-26 00:00:00 14.7 8 Sudeste 15 Sur 0 -- -- 75
2019-09-25 23:00:00 15 8 Sudeste 13 Sur 0 -- -- 75
2019-09-25 22:00:00 16.3 9 Sur 15 Sur 0 -- -- 69
2019-09-25 21:00:00 17 7 Sur 18 Sur 0 -- -- 66
2019-09-25 20:00:00 20.5 4 Sur 21 Norte 0 -- -- 54
2019-09-25 19:00:00 21.8 10 Norte 25 Noroeste 0 -- -- 47
2019-09-25 18:00:00 22.4 11 Norte 23 Noroeste 0 -- -- 46
2019-09-25 17:00:00 22.5 12 Norte 26 Norte 0 -- -- 46
2019-09-25 16:00:00 22.2 14 Noroeste 25 Norte 0 -- -- 47
2019-09-25 15:00:00 21.8 6 Sudoeste 21 Noroeste 0 -- -- 47
2019-09-25 14:00:00 20 9 Noroeste 18 Noroeste 0 -- -- 54
2019-09-25 13:00:00 18.5 9 Norte 19 Norte 0 -- -- 57
2019-09-25 12:00:00 17 8 Noroeste 15 Oeste 0 -- -- 63
2019-09-25 11:00:00 14.9 7 Sudoeste 17 Sudoeste 0 -- -- 70
2019-09-25 10:00:00 13 4 Sudoeste 9 Sudoeste 0 -- -- 79
2019-09-25 09:00:00 10.5 6 Sur 12 Oeste 0 -- -- 89
2019-09-25 08:00:00 10.3 6 Sudeste 12 Sur 0 -- -- 91
2019-09-25 07:00:00 11.4 6 Sur 12 Sur 0 -- -- 87
2019-09-25 06:00:00 11.8 4 Sur 17 Oeste 0 -- -- 87
2019-09-25 05:00:00 12.4 8 Sur 15 Sur 0 -- -- 81
2019-09-25 04:00:00 13.1 5 Este 13 Sudeste 0 -- -- 81
2019-09-25 03:00:00 13.2 8 Sur 14 Sudoeste 0 -- -- 83
2019-09-25 02:00:00 15.1 6 Sur 10 Sudoeste 0 -- -- 76
2019-09-25 01:00:00 16.2 6 Sudeste 16 Sudeste 0 -- -- 72
2019-09-25 00:00:00 17.1 4 Nordeste 8 Este 0 -- -- 73
2019-09-24 23:00:00 18 5 Oeste 12 Noroeste 0 -- -- 73
2019-09-24 22:00:00 19.1 5 Sudoeste 20 Oeste 0 -- -- 73
2019-09-24 21:00:00 19.7 6 Sudoeste 19 Oeste 0 -- -- 78
2019-09-24 20:00:00 20.4 5 Sudoeste 13 Oeste 0 -- -- 75
2019-09-24 19:00:00 21.2 3 Oeste 20 Oeste 0 -- -- 72
2019-09-24 18:00:00 21 8 Noroeste 22 Oeste 0 -- -- 73
2019-09-24 17:00:00 22 10 Oeste 21 Oeste 0 -- -- 65
2019-09-24 16:00:00 21.1 8 Oeste 20 Noroeste 0 -- -- 64
2019-09-24 15:00:00 21 9 Noroeste 19 Oeste 0 -- -- 61
2019-09-24 14:00:00 20.6 4 Norte 11 Oeste 0 -- -- 65
2019-09-24 13:00:00 18.8 4 Oeste 12 Noroeste 0 -- -- 64
2019-09-24 12:00:00 17.9 5 Noroeste 8 Este 0 -- -- 68
2019-09-24 11:00:00 16.4 0 Calma 7 Norte 0 -- -- 75
2019-09-24 10:00:00 14.8 4 Noroeste 12 Sur 0 -- -- 77
2019-09-24 09:00:00 12 7 Sur 18 Sur 0 -- -- 75
2019-09-24 08:00:00 12.3 8 Sudeste 13 Sur 0 -- -- 71
2019-09-24 07:00:00 12.7 9 Sudeste 16 Sur 0 -- -- 78
2019-09-24 06:00:00 12.4 9 Sur 13 Sur 0 -- -- 80
2019-09-24 05:00:00 12.7 8 Sudeste 16 Sur 0 -- -- 78
2019-09-24 04:00:00 12.8 8 Sudeste 17 Sur 0 -- -- 78
2019-09-24 03:00:00 13.7 11 Sur 16 Sur 0 -- -- 72
2019-09-24 02:00:00 14 10 Sur 18 Sur 0 -- -- 71
2019-09-24 01:00:00 14.4 15 Sur 20 Sur 0 -- -- 69
2019-09-24 00:00:00 14.6 13 Sur 19 Sur 0 -- -- 69
2019-09-23 23:00:00 14.6 13 Sur 18 Sur 0 -- -- 65
2019-09-23 22:00:00 14.4 8 Sudeste 15 Sur 0 -- -- 67
2019-09-23 21:00:00 15.4 8 Sur 15 Sur 0 -- -- 64
2019-09-23 20:00:00 18.6 9 Sur 12 Sur 0 -- -- 58
2019-09-23 19:00:00 21 5 Noroeste 16 Noroeste 0 -- -- 43
2019-09-23 18:00:00 22 6 Noroeste 17 Noroeste 0 -- -- 43
2019-09-23 17:00:00 21.5 7 Noroeste 19 Oeste 0 -- -- 44
2019-09-23 16:00:00 20.8 7 Noroeste 19 Oeste 0 -- -- 51
2019-09-23 15:00:00 19.7 6 Oeste 15 Noroeste 0 -- -- 57
2019-09-23 14:00:00 18.5 8 Noroeste 15 Norte 0 -- -- 61
2019-09-23 13:00:00 17.1 5 Oeste 14 Noroeste 0 -- -- 63
2019-09-23 12:00:00 16.6 7 Noroeste 13 Oeste 0 -- -- 66
2019-09-23 11:00:00 15.7 6 Oeste 12 Oeste 0 -- -- 68
2019-09-23 10:00:00 14.3 5 Sur 11 Sur 0 -- -- 73
2019-09-23 09:00:00 11.7 6 Sudeste 16 Sur 0 -- -- 83
2019-09-23 08:00:00 11.3 9 Sudeste 18 Sur 0 -- -- 82
2019-09-23 07:00:00 11.8 12 Sur 16 Sudeste 0 -- -- 78
2019-09-23 06:00:00 11.3 8 Sudeste 17 Sur 0 -- -- 82
2019-09-23 05:00:00 10.9 11 Sur 16 Sur 0 -- -- 87
2019-09-23 04:00:00 11.1 9 Sur 15 Sur 0 -- -- 87
2019-09-23 03:00:00 11.9 7 Sudeste 16 Sur 0 -- -- 84
2019-09-23 02:00:00 11.7 8 Sudeste 14 Sur 0 -- -- 85
2019-09-23 01:00:00 11.8 9 Sudeste 15 Sur 0 -- -- 85
2019-09-23 00:00:00 12.9 9 Sur 13 Sur 0 -- -- 79
2019-09-22 23:00:00 13.6 10 Sur 13 Sur 0 -- -- 75
2019-09-22 22:00:00 15.2 6 Sudeste 8 Sudeste 0 -- -- 77
2019-09-22 21:00:00 16.6 4 Sur 18 Sudoeste 0 -- -- 69
2019-09-22 20:00:00 17.4 4 Sudoeste 13 Sudoeste 0 -- -- 71
2019-09-22 19:00:00 18.1 8 Noroeste 14 Oeste 0 -- -- 67
2019-09-22 18:00:00 18.8 6 Oeste 19 Noroeste 0 -- -- 62
2019-09-22 17:00:00 19.2 9 Noroeste 21 Oeste 0 -- -- 63
2019-09-22 16:00:00 19 8 Oeste 20 Oeste 0 -- -- 63
2019-09-22 15:00:00 17.7 10 Noroeste 18 Oeste 0 -- -- 70
2019-09-22 14:00:00 16.6 8 Oeste 17 Noroeste 0 -- -- 78
2019-09-22 13:00:00 16.3 5 Sudoeste 13 Noroeste 0 -- -- 81
2019-09-22 12:00:00 14.8 5 Oeste 11 Noroeste 0 -- -- 95
2019-09-22 11:00:00 14.7 5 Noroeste 8 Noroeste 0 -- -- 95
2019-09-22 10:00:00 13.8 4 Sudeste 8 Sudeste 0 -- -- 94
2019-09-22 09:00:00 12.9 6 Sudeste 10 Sudeste 0 -- -- 98
2019-09-22 08:00:00 13.1 4 Sur 8 Oeste 0 -- -- 98
2019-09-22 07:00:00 14 5 Noroeste 14 Noroeste 0.2 -- -- 99
2019-09-22 06:00:00 14.7 0 Calma 15 Sudoeste 0 -- -- 97
2019-09-22 05:00:00 15.2 3 Norte 7 Sudeste 0 -- -- 97
2019-09-22 04:00:00 15.7 2 Este 26 Oeste 0.2 -- -- 96
2019-09-22 03:00:00 16 2 Oeste 26 Oeste 2.8 -- -- 98
2019-09-22 02:00:00 16.7 9 Sudoeste 30 Sur 0.4 -- -- 90
2019-09-22 01:00:00 17.5 10 Sur 52 Sur 2 -- -- 82
2019-09-22 00:00:00 18.1 37 Sur 64 Sudeste 1.4 -- -- 80
2019-09-21 23:00:00 18.4 26 Sur 58 Sur 0.2 -- -- 81
2019-09-21 22:00:00 18.6 19 Sur 46 Sudeste 0.2 -- -- 78
2019-09-21 21:00:00 18.3 19 Sur 40 Sur 0 -- -- 78
2019-09-21 20:00:00 17.6 16 Sur 28 Sur 0 -- -- 76
2019-09-21 19:00:00 16.3 3 Sur 32 Sudeste 0.4 -- -- 93
2019-09-21 18:00:00 17.2 12 Sur 33 Sur 0.6 -- -- 81
2019-09-21 17:00:00 16.9 17 Sur 38 Sur 2 -- -- 83
2019-09-21 16:00:00 16.4 16 Sur 36 Sudeste 1.2 -- -- 81
2019-09-21 15:00:00 16.6 19 Sur 49 Sur 1.6 -- -- 82
2019-09-21 14:00:00 16.8 31 Sur 57 Sur 0.2 -- -- 75
2019-09-21 13:00:00 17.2 35 Sur 60 Sur 0 -- -- 70
2019-09-21 12:00:00 16.7 28 Sur 59 Sur 0.8 -- -- 74
2019-09-21 11:00:00 16.8 25 Sur 44 Sur 0.4 -- -- 77
2019-09-21 10:00:00 15.6 6 Sudoeste 30 Sur 0.6 -- -- 89
2019-09-21 09:00:00 17.1 15 Sur 36 Sudeste 0 -- -- 71
2019-09-21 08:00:00 17.3 18 Sur 40 Sur 0 -- -- 73
2019-09-21 07:00:00 17 17 Sur 32 Sudeste 0 -- -- 74
2019-09-21 06:00:00 16.9 7 Sur 31 Sudeste 0 -- -- 75
2019-09-21 05:00:00 17.5 9 Sur 38 Sur 0 -- -- 69
2019-09-21 04:00:00 17.3 8 Sur 32 Sur 0 -- -- 70
2019-09-21 03:00:00 17.5 11 Sur 23 Sur 0 -- -- 68
2019-09-21 02:00:00 17.8 12 Sur 23 Sur 0 -- -- 66
2019-09-21 01:00:00 16.9 4 Sur 10 Sudoeste 0 -- -- 77
2019-09-21 00:00:00 17.7 3 Oeste 18 Oeste 0 -- -- 72
2019-09-20 23:00:00 18.9 9 Sur 22 Sur 0 -- -- 67
2019-09-20 22:00:00 19 11 Sudeste 22 Sur 0.2 -- -- 68
2019-09-20 21:00:00 19.7 8 Sur 19 Sur 0 -- -- 64
2019-09-20 20:00:00 19.3 3 Sur 16 Este 0 -- -- 75
2019-09-20 19:00:00 20 5 Norte 20 Noroeste 0 -- -- 68
2019-09-20 18:00:00 21.1 5 Sudoeste 23 Sur 0.6 -- -- 60
2019-09-20 17:00:00 22.9 12 Sudoeste 31 Sudeste 0.2 -- -- 56
2019-09-20 16:00:00 25.1 12 Este 40 Sudoeste 0 -- -- 47
2019-09-20 15:00:00 24.3 18 Sudeste 42 Sudeste 0 -- -- 50
2019-09-20 14:00:00 23.8 16 Sudeste 35 Sudeste 0 -- -- 49
2019-09-20 13:00:00 22.7 11 Sudeste 32 Sudeste 0 -- -- 52
2019-09-20 12:00:00 21.9 17 Sur 50 Sur 0 -- -- 48
2019-09-20 11:00:00 20.7 7 Este 27 Sur 0 -- -- 60
2019-09-20 10:00:00 20.6 8 Noroeste 42 Sudeste 0 -- -- 60
2019-09-20 09:00:00 18.2 8 Sudeste 16 Este 0 -- -- 69
2019-09-20 08:00:00 17.8 7 Oeste 19 Noroeste 0 -- -- 68
2019-09-20 07:00:00 16.2 5 Sudeste 14 Sudeste 0 -- -- 75
2019-09-20 06:00:00 17.7 3 Sudeste 13 Oeste 0 -- -- 66
2019-09-20 05:00:00 17.5 6 Sudeste 12 Sudeste 0 -- -- 68
2019-09-20 04:00:00 18.4 5 Sudeste 15 Sur 0 -- -- 66
2019-09-20 03:00:00 18.7 8 Sudeste 15 Sur 0 -- -- 63
2019-09-20 02:00:00 18 9 Sudeste 14 Sur 0 -- -- 68
2019-09-20 01:00:00 18.1 9 Sudeste 11 Sudeste 0 -- -- 67
2019-09-20 00:00:00 19.3 4 Sur 13 Sur 0 -- -- 67
2019-09-19 23:00:00 20.4 8 Sur 12 Sudeste 0 -- -- 60
2019-09-19 22:00:00 19.5 8 Sudeste 15 Sur 0 -- -- 64
2019-09-19 21:00:00 20 7 Sudeste 11 Sudeste 0 -- -- 62
2019-09-19 20:00:00 24.5 4 Sur 15 Sur 0 -- -- 47
2019-09-19 19:00:00 26.5 7 Sudoeste 22 Sur 0 -- -- 37
2019-09-19 18:00:00 27.8 6 Sudoeste 22 Sudoeste 0 -- -- 36
2019-09-19 17:00:00 27.2 9 Oeste 21 Noroeste 0 -- -- 40
2019-09-19 16:00:00 26.5 7 Oeste 18 Noroeste 0 -- -- 44
2019-09-19 15:00:00 25.7 5 Noroeste 12 Oeste 0 -- -- 46
2019-09-19 14:00:00 23.7 7 Oeste 17 Oeste 0 -- -- 50
2019-09-19 13:00:00 22.7 6 Noroeste 11 Oeste 0 -- -- 53
2019-09-19 12:00:00 22.9 3 Norte 6 Oeste 0 -- -- 55
2019-09-19 11:00:00 20.8 0 Calma 7 Oeste 0 -- -- 62
2019-09-19 10:00:00 20.3 3 Oeste 12 Sur 0 -- -- 62
2019-09-19 09:00:00 17.8 11 Sur 15 Sur 0 -- -- 70
2019-09-19 08:00:00 16.7 8 Sudeste 14 Sur 0 -- -- 74
2019-09-19 07:00:00 17.7 9 Sur 14 Sur 0 -- -- 70
2019-09-19 06:00:00 17.3 9 Sur 14 Sudeste 0 -- -- 72
2019-09-19 05:00:00 17.4 8 Sudeste 15 Sur 0 -- -- 72
2019-09-19 04:00:00 18.4 9 Sur 14 Sur 0 -- -- 66
2019-09-19 03:00:00 18.4 8 Sur 14 Sur 0 -- -- 65
2019-09-19 02:00:00 18.6 9 Sur 13 Sur 0 -- -- 66
2019-09-19 01:00:00 19.1 5 Sur 11 Sudeste 0 -- -- 64
2019-09-19 00:00:00 19.2 7 Sudeste 15 Sur 0 -- -- 66
2019-09-18 23:00:00 19.9 11 Sur 17 Sur 0 -- -- 64
2019-09-18 22:00:00 20.2 14 Sur 18 Sur 0 -- -- 64
2019-09-18 21:00:00 20.7 9 Sur 14 Sur 0 -- -- 67
2019-09-18 20:00:00 25.1 3 Sudoeste 10 Oeste 0 -- -- 52
2019-09-18 19:00:00 26.3 5 Oeste 18 Oeste 0 -- -- 44
2019-09-18 18:00:00 26.4 8 Oeste 18 Oeste 0 -- -- 45
2019-09-18 17:00:00 26.5 7 Oeste 19 Oeste 0 -- -- 47
2019-09-18 16:00:00 25.7 8 Oeste 18 Oeste 0 -- -- 45
2019-09-18 15:00:00 25.2 4 Oeste 16 Noroeste 0 -- -- 45
2019-09-18 14:00:00 24 4 Noroeste 14 Sudoeste 0 -- -- 49
2019-09-18 13:00:00 22.9 6 Noroeste 12 Oeste 0 -- -- 46
2019-09-18 12:00:00 21.6 4 Noroeste 7 Noroeste 0 -- -- 46
2019-09-18 11:00:00 19.5 0 Calma 6 Noroeste 0 -- -- 55
2019-09-18 10:00:00 17.7 5 Sudeste 14 Sur 0 -- -- 72
2019-09-18 09:00:00 14.6 10 Sudeste 15 Sur 0 -- -- 79
2019-09-18 08:00:00 14.1 8 Sudeste 15 Sur 0 -- -- 81
2019-09-18 07:00:00 14.1 9 Sudeste 12 Sur 0 -- -- 80
2019-09-18 06:00:00 14.2 8 Sudeste 15 Sur 0 -- -- 78
2019-09-18 05:00:00 15.2 11 Sur 17 Sur 0 -- -- 71
2019-09-18 04:00:00 14.4 9 Sudeste 13 Sur 0 -- -- 79
2019-09-18 03:00:00 14.9 9 Sudeste 15 Sur 0 -- -- 77
2019-09-18 02:00:00 14.7 7 Sur 14 Sudeste 0 -- -- 80
2019-09-18 01:00:00 15.5 6 Sudeste 19 Oeste 0 -- -- 83
2019-09-18 00:00:00 16.8 9 Sur 22 Oeste 0 -- -- 66
2019-09-17 23:00:00 15.8 2 Sudoeste 29 Sudeste 0.2 -- -- 79
2019-09-17 22:00:00 16.2 13 Sudeste 26 Sudeste 0.2 -- -- 80
2019-09-17 21:00:00 15.8 14 Sudeste 28 Este 2.2 -- -- 81
2019-09-15 18:00:00 -- -- -- -- -- -- -- -- --
2019-09-15 17:00:00 -- -- -- -- -- -- -- -- --
2019-09-15 16:00:00 22 3 Noroeste 8 Sudoeste 0 -- -- 62
2019-09-15 15:00:00 21.2 5 Noroeste 8 Norte 0 -- -- 66
2019-09-15 14:00:00 20.1 3 Noroeste 7 Noroeste 0 -- -- 70
2019-09-15 13:00:00 19.7 3 Noroeste 11 Oeste 0 -- -- 71
2019-09-15 12:00:00 19.6 6 Noroeste 12 Noroeste 0 -- -- 76
2019-09-15 11:00:00 18.5 3 Nordeste 6 Nordeste 0 -- -- 82
2019-09-15 10:00:00 16.1 0 Calma 9 Oeste 0 -- -- 95
2019-09-15 09:00:00 15.2 4 Sudeste 12 Sur 0 -- -- 94
2019-09-15 08:00:00 15.2 8 Sur 15 Sur 0.2 -- -- 92
2019-09-15 07:00:00 15.2 6 Sur 15 Sur 0.2 -- -- 94
2019-09-15 06:00:00 15 8 Sudeste 14 Sur 0 -- -- 92
2019-09-15 05:00:00 15.1 8 Sudeste 14 Sudeste 0.2 -- -- 92
2019-09-15 04:00:00 15.4 0 Calma 12 Sudeste 4 -- -- 94
2019-09-15 03:00:00 15.8 11 Sur 17 Sur 1.2 -- -- 90
2019-09-15 02:00:00 16.2 7 Sudeste 14 Sudeste 0 -- -- 85
2019-09-15 01:00:00 16.5 3 Este 11 Sudeste 0 -- -- 71
2019-09-15 00:00:00 16.4 3 Este 15 Sudeste 0 -- -- 70